Time;durP1;ratioP1;P1;durP2;ratioP2;P2;SDS_P1;SDS_P2;PMS_P1;PMS_P2;Temp;Humidity;BMP_temperature;BMP_pressure;BME280_temperature;BME280_humidity;BME280_pressure;Samples;Min_cycle;Max_cycle;Signal;HPM_P1;HPM_P2
2023/08/30 00:01:00;;;;;;;16.57;13.40;;;14.80;38.30;;;;;;5010587;28;20472;-64
2023/08/30 00:03:27;;;;;;;14.90;12.90;;;14.80;38.20;;;;;;5006484;28;20492;-64
2023/08/30 00:05:53;;;;;;;17.30;12.70;;;14.80;38.20;;;;;;5010845;28;20475;-64
2023/08/30 00:08:21;;;;;;;14.57;12.13;;;14.80;38.20;;;;;;5011659;28;20455;-64
2023/08/30 00:10:49;;;;;;;14.43;12.60;;;14.80;38.20;;;;;;5006139;28;20979;-64
2023/08/30 00:13:16;;;;;;;14.60;13.03;;;14.80;38.20;;;;;;5009078;28;20483;-64
2023/08/30 00:15:42;;;;;;;14.80;13.20;;;14.80;38.20;;;;;;5010527;28;20467;-64
2023/08/30 00:18:09;;;;;;;14.67;13.17;;;14.80;38.30;;;;;;5004853;28;20459;-65
2023/08/30 00:20:36;;;;;;;13.87;12.43;;;14.80;38.20;;;;;;5011521;28;20466;-64
2023/08/30 00:23:03;;;;;;;12.93;11.43;;;14.80;38.80;;;;;;5008844;28;20483;-64
2023/08/30 00:25:32;;;;;;;16.00;13.40;;;14.80;38.30;;;;;;5011046;28;20455;-64
2023/08/30 00:27:59;;;;;;;14.43;12.47;;;14.80;38.30;;;;;;5011719;28;20974;-65
2023/08/30 00:30:26;;;;;;;13.73;12.27;;;14.80;38.30;;;;;;5011250;28;20460;-64
2023/08/30 00:32:52;;;;;;;14.77;12.43;;;14.80;38.30;;;;;;5009288;28;20463;-64
2023/08/30 00:35:19;;;;;;;14.60;12.43;;;14.80;38.40;;;;;;5004667;28;21015;-64
2023/08/30 00:37:46;;;;;;;13.67;12.27;;;14.70;38.30;;;;;;5010621;28;20987;-64
2023/08/30 00:40:13;;;;;;;14.00;12.50;;;14.70;38.30;;;;;;5009522;28;20460;-64
2023/08/30 00:42:41;;;;;;;14.40;12.83;;;14.70;38.40;;;;;;5002568;28;20483;-64
2023/08/30 00:45:08;;;;;;;13.83;12.37;;;14.70;38.50;;;;;;5010458;28;21099;-64
2023/08/30 00:47:36;;;;;;;16.17;13.70;;;14.70;38.50;;;;;;5008748;28;20975;-64
2023/08/30 00:50:03;;;;;;;21.90;13.37;;;14.70;38.50;;;;;;5010712;28;20463;-64
2023/08/30 00:52:29;;;;;;;14.93;13.00;;;14.80;39.00;;;;;;5008279;28;20467;-64
2023/08/30 00:54:56;;;;;;;15.50;13.90;;;14.80;38.40;;;;;;5007151;28;20491;-64
2023/08/30 00:57:23;;;;;;;17.07;13.07;;;14.80;38.40;;;;;;5007522;28;20472;-64
2023/08/30 00:59:52;;;;;;;15.30;13.13;;;14.80;39.00;;;;;;5009153;28;20932;-64
2023/08/30 01:02:19;;;;;;;14.20;12.70;;;14.80;38.40;;;;;;5009470;28;20479;-65
2023/08/30 01:04:46;;;;;;;14.90;13.30;;;14.80;38.30;;;;;;5010191;28;20479;-64
2023/08/30 01:07:13;;;;;;;15.60;13.40;;;14.80;38.30;;;;;;5008251;28;20459;-64
2023/08/30 01:09:39;;;;;;;15.60;13.93;;;14.80;38.50;;;;;;5009211;28;20811;-64
2023/08/30 01:12:13;;;;;;;15.50;13.87;;;14.80;38.20;;;;;;5009957;28;20546;-64
2023/08/30 01:14:46;;;;;;;16.40;13.70;;;14.80;38.30;;;;;;5009405;28;20479;-64
2023/08/30 01:17:17;;;;;;;17.33;14.50;;;14.80;38.30;;;;;;5002828;28;20464;-65
2023/08/30 01:19:52;;;;;;;14.50;13.00;;;14.80;38.20;;;;;;5009757;28;20464;-64
2023/08/30 01:22:28;;;;;;;15.57;13.90;;;14.80;38.20;;;;;;5006233;28;20511;-64
2023/08/30 01:25:13;;;;;;;16.43;14.53;;;14.80;38.20;;;;;;5006577;28;20484;-66
2023/08/30 01:27:43;;;;;;;18.20;14.13;;;14.80;38.30;;;;;;5010397;28;20463;-64
2023/08/30 01:30:11;;;;;;;19.43;15.00;;;14.80;38.20;;;;;;5006291;28;20456;-66
2023/08/30 01:32:38;;;;;;;16.97;14.70;;;14.80;38.20;;;;;;5008135;28;20545;-66
2023/08/30 01:35:07;;;;;;;16.40;14.20;;;14.80;38.30;;;;;;5009723;28;20470;-64
2023/08/30 01:37:34;;;;;;;16.17;14.50;;;14.70;38.30;;;;;;5004912;28;20456;-64
2023/08/30 01:40:04;;;;;;;17.17;15.37;;;14.70;38.20;;;;;;5009279;28;20459;-64
2023/08/30 01:42:31;;;;;;;17.60;15.70;;;14.70;38.20;;;;;;5005450;28;20487;-64
2023/08/30 01:45:02;;;;;;;17.57;15.73;;;14.80;38.10;;;;;;5005940;28;20487;-64
2023/08/30 01:47:30;;;;;;;17.20;15.20;;;14.70;38.20;;;;;;5004195;28;20459;-64
2023/08/30 01:49:58;;;;;;;19.50;16.47;;;14.70;38.00;;;;;;5007372;28;20456;-64
2023/08/30 01:52:25;;;;;;;18.53;16.30;;;14.70;38.00;;;;;;5010225;28;20452;-64
2023/08/30 01:54:52;;;;;;;18.40;16.40;;;14.70;38.10;;;;;;5008939;28;20838;-64
2023/08/30 01:57:19;;;;;;;18.13;16.23;;;14.70;38.00;;;;;;5010110;28;20459;-64
2023/08/30 01:59:46;;;;;;;17.23;15.43;;;14.70;37.90;;;;;;5009201;28;21023;-64
2023/08/30 02:02:14;;;;;;;17.50;15.50;;;14.70;38.00;;;;;;5009291;28;20887;-64
2023/08/30 02:04:40;;;;;;;17.73;15.60;;;14.60;37.90;;;;;;5005825;28;20471;-64
2023/08/30 02:07:13;;;;;;;17.67;15.70;;;14.60;37.90;;;;;;5006451;28;20482;-64
2023/08/30 02:09:43;;;;;;;18.57;16.57;;;14.60;37.90;;;;;;5007287;28;20468;-64
2023/08/30 02:12:15;;;;;;;18.87;16.87;;;14.60;37.90;;;;;;5004361;28;20456;-64
2023/08/30 02:14:45;;;;;;;19.20;16.47;;;14.60;37.90;;;;;;5008024;28;20480;-64
2023/08/30 02:17:15;;;;;;;18.60;16.60;;;14.60;37.90;;;;;;5007746;28;20464;-64
2023/08/30 02:19:42;;;;;;;18.87;16.90;;;14.60;38.00;;;;;;5002947;28;20474;-64
2023/08/30 02:22:09;;;;;;;18.70;16.70;;;14.60;37.90;;;;;;5008644;28;20499;-64
2023/08/30 02:24:36;;;;;;;17.73;15.83;;;14.60;38.00;;;;;;5008036;28;21018;-64
2023/08/30 02:27:02;;;;;;;19.60;17.53;;;14.60;38.00;;;;;;5008824;28;20464;-64
2023/08/30 02:29:29;;;;;;;17.77;15.87;;;14.60;38.20;;;;;;5009443;28;20460;-64
2023/08/30 02:31:56;;;;;;;18.40;16.40;;;14.50;38.20;;;;;;5008137;28;20463;-64
2023/08/30 02:34:24;;;;;;;18.27;16.33;;;14.60;38.20;;;;;;5007567;28;20892;-64
2023/08/30 02:36:51;;;;;;;19.93;16.27;;;14.50;38.10;;;;;;5007980;28;20470;-64
2023/08/30 02:39:18;;;;;;;20.80;16.90;;;14.50;38.10;;;;;;5004177;28;20488;-64
2023/08/30 02:41:44;;;;;;;19.27;16.73;;;14.50;38.10;;;;;;5009177;28;20480;-64
2023/08/30 02:44:12;;;;;;;19.70;16.27;;;14.50;38.10;;;;;;5008933;28;20846;-64
2023/08/30 02:46:39;;;;;;;18.93;16.77;;;14.50;38.20;;;;;;5006660;28;20555;-64
2023/08/30 02:49:05;;;;;;;22.00;17.70;;;14.60;38.10;;;;;;5006135;28;21072;-64
2023/08/30 02:51:33;;;;;;;18.80;16.20;;;14.60;38.00;;;;;;5008712;28;20471;-64
2023/08/30 02:54:00;;;;;;;20.47;18.27;;;14.60;38.10;;;;;;5006167;28;20233;-64
2023/08/30 02:56:26;;;;;;;19.30;16.23;;;14.60;38.00;;;;;;5007767;28;20468;-64
2023/08/30 02:58:53;;;;;;;19.00;16.90;;;14.60;37.90;;;;;;5006341;28;20836;-64
2023/08/30 03:01:20;;;;;;;29.53;18.03;;;14.60;37.90;;;;;;5008041;28;20472;-64
2023/08/30 03:03:47;;;;;;;21.30;16.97;;;14.60;37.90;;;;;;5009061;28;20486;-64
2023/08/30 03:06:13;;;;;;;23.77;17.90;;;14.60;37.70;;;;;;5006912;28;20472;-64
2023/08/30 03:08:42;;;;;;;19.10;17.00;;;14.60;37.70;;;;;;5008642;28;20616;-64
2023/08/30 03:11:09;;;;;;;20.00;17.03;;;14.60;37.60;;;;;;4999939;28;20471;-64
2023/08/30 03:13:37;;;;;;;23.47;17.80;;;14.60;37.60;;;;;;5004901;28;20475;-63
2023/08/30 03:16:10;;;;;;;20.47;18.00;;;14.50;37.60;;;;;;5006428;28;20463;-65
2023/08/30 03:18:37;;;;;;;20.63;18.27;;;14.60;37.60;;;;;;5005141;28;20470;-63
2023/08/30 03:21:03;;;;;;;19.80;17.67;;;14.60;37.60;;;;;;5004535;28;20478;-66
2023/08/30 03:23:31;;;;;;;23.33;17.63;;;14.50;37.60;;;;;;5007980;28;20506;-65
2023/08/30 03:25:59;;;;;;;23.00;18.53;;;14.60;37.60;;;;;;5003813;28;20460;-64
2023/08/30 03:28:27;;;;;;;23.17;18.87;;;14.60;37.50;;;;;;5001799;28;20468;-65
2023/08/30 03:30:54;;;;;;;23.40;18.57;;;14.60;37.60;;;;;;5000844;28;20472;-64
2023/08/30 03:33:20;;;;;;;21.77;18.57;;;14.60;37.50;;;;;;5007764;28;20483;-64
2023/08/30 03:35:47;;;;;;;21.40;18.37;;;14.60;37.40;;;;;;5012067;28;20468;-64
2023/08/30 03:38:14;;;;;;;22.43;17.87;;;14.60;37.60;;;;;;5009926;28;20468;-64
2023/08/30 03:40:40;;;;;;;21.53;17.40;;;14.60;37.40;;;;;;5015510;28;20459;-64
2023/08/30 03:43:08;;;;;;;23.13;18.93;;;14.60;37.40;;;;;;5014231;28;20483;-64
2023/08/30 03:45:36;;;;;;;20.70;18.50;;;14.60;37.40;;;;;;5012341;28;20979;-64
2023/08/30 03:48:03;;;;;;;22.97;19.10;;;14.60;37.90;;;;;;5011286;28;20464;-64
2023/08/30 03:50:30;;;;;;;20.10;17.77;;;14.60;37.30;;;;;;5011595;28;20464;-64
2023/08/30 03:52:56;;;;;;;24.60;21.00;;;14.50;37.40;;;;;;5010123;28;20515;-64
2023/08/30 03:55:23;;;;;;;22.70;18.67;;;14.60;37.50;;;;;;5010504;28;20500;-64
2023/08/30 03:57:50;;;;;;;23.17;19.80;;;14.60;37.40;;;;;;5014196;28;20467;-64
2023/08/30 04:00:18;;;;;;;22.10;19.27;;;14.60;37.40;;;;;;5010692;28;20460;-64
2023/08/30 04:02:45;;;;;;;23.20;18.83;;;14.50;37.50;;;;;;5013628;28;20482;-64
2023/08/30 04:05:12;;;;;;;19.90;17.80;;;14.50;37.40;;;;;;5014029;28;20460;-65
2023/08/30 04:07:38;;;;;;;20.87;18.20;;;14.50;37.30;;;;;;5012715;28;20464;-65
2023/08/30 04:10:07;;;;;;;22.03;18.10;;;14.50;37.40;;;;;;5012234;28;20472;-64
2023/08/30 04:12:34;;;;;;;22.23;18.33;;;14.50;37.40;;;;;;5024013;28;20459;-64
2023/08/30 04:15:01;;;;;;;22.43;17.70;;;14.50;37.40;;;;;;5023083;28;20844;-64
2023/08/30 04:17:29;;;;;;;25.33;18.20;;;14.50;37.40;;;;;;5011246;28;21694;-64
2023/08/30 04:19:56;;;;;;;23.00;18.97;;;14.50;37.40;;;;;;5008457;28;20467;-64
2023/08/30 04:22:22;;;;;;;22.10;18.80;;;14.50;37.40;;;;;;5014113;28;20992;-64
2023/08/30 04:24:50;;;;;;;22.70;19.23;;;14.40;37.30;;;;;;5011154;28;20480;-64
2023/08/30 04:27:17;;;;;;;21.60;18.10;;;14.40;37.40;;;;;;5014758;28;20236;-64
2023/08/30 04:29:45;;;;;;;22.70;19.40;;;14.40;37.40;;;;;;5014104;28;21124;-64
2023/08/30 04:32:11;;;;;;;24.77;19.17;;;14.50;37.50;;;;;;5013062;28;20468;-64
2023/08/30 04:34:40;;;;;;;23.13;19.67;;;14.40;37.50;;;;;;5013639;28;20486;-64
2023/08/30 04:37:06;;;;;;;21.83;18.07;;;14.40;37.50;;;;;;5013662;28;21009;-64
2023/08/30 04:39:33;;;;;;;25.93;19.83;;;14.40;37.50;;;;;;5011555;28;20459;-65
2023/08/30 04:42:00;;;;;;;21.33;18.50;;;14.40;37.50;;;;;;5013428;28;20463;-63
2023/08/30 04:44:27;;;;;;;32.57;20.67;;;14.50;37.60;;;;;;5010447;28;20475;-64
2023/08/30 04:46:54;;;;;;;23.40;19.70;;;14.40;37.50;;;;;;5012489;28;20545;-64
2023/08/30 04:49:21;;;;;;;22.07;17.80;;;14.50;37.70;;;;;;5031482;28;20485;-64
2023/08/30 04:51:49;;;;;;;24.00;18.73;;;14.50;37.60;;;;;;5013743;28;20466;-64
2023/08/30 04:54:16;;;;;;;23.00;18.63;;;14.50;37.70;;;;;;5004228;28;20488;-64
2023/08/30 04:56:43;;;;;;;24.73;18.83;;;14.50;37.70;;;;;;5004239;28;20475;-64
2023/08/30 04:59:10;;;;;;;23.87;18.17;;;14.50;38.30;;;;;;5010646;28;20460;-64
2023/08/30 05:01:37;;;;;;;24.30;18.90;;;14.50;37.80;;;;;;5008470;28;20484;-65
2023/08/30 05:04:05;;;;;;;22.07;18.80;;;14.50;37.80;;;;;;5010412;28;21024;-64
2023/08/30 05:06:32;;;;;;;21.27;18.63;;;14.50;37.80;;;;;;5008937;28;20875;-64
2023/08/30 05:09:00;;;;;;;26.17;20.40;;;14.60;37.80;;;;;;5011343;28;20467;-64
2023/08/30 05:11:27;;;;;;;22.60;19.80;;;14.60;37.70;;;;;;5006825;28;20463;-65
2023/08/30 05:13:53;;;;;;;24.27;19.47;;;14.60;37.70;;;;;;5009142;28;20476;-64
2023/08/30 05:16:20;;;;;;;22.87;19.07;;;14.60;37.60;;;;;;5005108;28;20747;-64
2023/08/30 05:18:48;;;;;;;23.50;17.13;;;14.70;37.50;;;;;;5010977;28;20455;-64
2023/08/30 05:21:15;;;;;;;21.97;18.53;;;14.70;37.60;;;;;;5010059;28;20459;-64
2023/08/30 05:23:42;;;;;;;21.27;17.33;;;14.70;37.60;;;;;;5010245;28;20476;-64
2023/08/30 05:26:12;;;;;;;21.73;17.93;;;14.80;37.50;;;;;;5009950;28;20534;-64
2023/08/30 05:28:39;;;;;;;21.73;18.07;;;14.80;37.40;;;;;;5009321;28;20464;-64
2023/08/30 05:31:06;;;;;;;21.63;18.10;;;14.80;37.20;;;;;;5006732;28;20483;-64
2023/08/30 05:33:33;;;;;;;20.47;18.13;;;14.90;37.20;;;;;;5008723;28;20476;-64
2023/08/30 05:35:59;;;;;;;22.20;17.33;;;14.90;37.10;;;;;;5008950;28;20467;-64
2023/08/30 05:38:26;;;;;;;19.47;17.37;;;14.90;37.00;;;;;;5008247;28;20455;-64
2023/08/30 05:40:53;;;;;;;20.63;17.63;;;15.00;36.90;;;;;;5006708;28;20468;-64
2023/08/30 05:43:21;;;;;;;20.07;16.03;;;15.00;36.80;;;;;;5009009;28;20498;-64
2023/08/30 05:45:50;;;;;;;21.27;18.70;;;15.10;36.60;;;;;;5009376;28;20483;-64
2023/08/30 05:48:16;;;;;;;19.27;17.13;;;15.10;36.40;;;;;;5008575;28;20468;-64
2023/08/30 05:50:45;;;;;;;22.03;16.87;;;15.10;36.40;;;;;;5008618;28;20455;-64
2023/08/30 05:53:12;;;;;;;20.57;17.73;;;15.20;36.20;;;;;;5008195;28;20476;-64
2023/08/30 05:55:38;;;;;;;18.97;15.40;;;15.20;36.10;;;;;;5001801;28;20906;-64
2023/08/30 05:58:05;;;;;;;18.93;15.33;;;15.30;36.00;;;;;;5002314;28;20471;-65
2023/08/30 06:00:33;;;;;;;21.53;16.00;;;15.30;36.00;;;;;;5006681;28;20991;-65
2023/08/30 06:03:00;;;;;;;18.17;15.37;;;15.30;35.90;;;;;;5005531;28;20492;-66
2023/08/30 06:05:27;;;;;;;23.90;17.17;;;15.40;35.70;;;;;;5006770;28;20464;-66
2023/08/30 06:07:54;;;;;;;18.30;15.67;;;15.40;35.60;;;;;;5010387;28;21175;-66
2023/08/30 06:10:20;;;;;;;17.83;15.93;;;15.50;35.40;;;;;;5008298;28;20459;-66
2023/08/30 06:12:47;;;;;;;17.97;15.57;;;15.50;35.10;;;;;;5009741;28;20455;-66
2023/08/30 06:15:14;;;;;;;17.13;14.63;;;15.50;35.20;;;;;;5008789;28;20462;-66
2023/08/30 06:17:42;;;;;;;22.33;17.03;;;15.60;35.00;;;;;;5011546;28;20479;-66
2023/08/30 06:20:09;;;;;;;19.13;16.03;;;15.70;34.90;;;;;;5002870;28;20523;-66
2023/08/30 06:22:36;;;;;;;17.83;15.00;;;15.80;34.50;;;;;;5008806;28;20456;-66
2023/08/30 06:25:04;;;;;;;18.73;16.33;;;15.90;34.30;;;;;;5008777;28;20467;-66
2023/08/30 06:27:31;;;;;;;16.87;14.07;;;16.00;34.20;;;;;;5007823;28;20468;-66
2023/08/30 06:29:57;;;;;;;16.57;14.73;;;16.00;33.70;;;;;;5008012;28;20458;-66
2023/08/30 06:32:24;;;;;;;21.43;15.53;;;16.10;33.60;;;;;;5008095;28;20998;-66
2023/08/30 06:34:52;;;;;;;17.80;14.70;;;16.30;33.30;;;;;;5008298;28;20482;-66
2023/08/30 06:37:19;;;;;;;17.90;13.47;;;16.40;32.50;;;;;;5004556;28;20463;-66
2023/08/30 06:39:45;;;;;;;16.27;14.57;;;16.40;32.20;;;;;;4999930;28;20465;-66
2023/08/30 06:42:12;;;;;;;17.47;14.23;;;16.50;31.90;;;;;;5017888;23;20491;-66
2023/08/30 06:44:40;;;;;;;17.00;14.33;;;16.60;32.00;;;;;;5007924;28;20503;-64
2023/08/30 06:47:07;;;;;;;15.13;13.30;;;16.70;31.70;;;;;;5010394;28;20853;-65
2023/08/30 06:49:33;;;;;;;16.10;14.20;;;16.80;31.50;;;;;;5005428;28;20456;-65
2023/08/30 06:52:03;;;;;;;16.07;14.17;;;16.90;31.40;;;;;;5008592;28;20464;-65
2023/08/30 06:54:31;;;;;;;17.80;14.40;;;17.00;31.00;;;;;;5008383;28;20484;-65
2023/08/30 06:56:59;;;;;;;15.67;13.97;;;17.20;30.80;;;;;;5011602;28;20971;-65
2023/08/30 06:59:26;;;;;;;15.63;13.57;;;17.30;30.10;;;;;;5007841;28;20515;-65
2023/08/30 07:01:53;;;;;;;16.70;13.50;;;17.40;29.80;;;;;;5006632;28;20490;-65
2023/08/30 07:04:19;;;;;;;15.37;13.17;;;17.40;29.40;;;;;;5005416;28;20491;-65
2023/08/30 07:06:47;;;;;;;15.10;13.50;;;17.40;28.50;;;;;;5008716;28;20815;-67
2023/08/30 07:09:15;;;;;;;15.70;13.20;;;17.30;28.20;;;;;;5006832;28;20466;-67
2023/08/30 07:11:45;;;;;;;15.37;12.57;;;17.30;28.50;;;;;;5008840;28;20464;-68
2023/08/30 07:14:12;;;;;;;16.40;13.70;;;17.20;28.60;;;;;;5001518;28;20848;-65
2023/08/30 07:16:39;;;;;;;16.57;13.73;;;17.20;28.90;;;;;;5005809;28;20522;-66
2023/08/30 07:19:06;;;;;;;15.77;13.97;;;17.20;29.00;;;;;;5007961;28;20463;-66
2023/08/30 07:21:35;;;;;;;22.60;13.43;;;17.10;29.00;;;;;;5002307;28;20472;-65
2023/08/30 07:24:03;;;;;;;17.07;13.40;;;17.10;28.90;;;;;;5010814;28;20506;-64
2023/08/30 07:26:31;;;;;;;16.40;13.90;;;17.10;29.10;;;;;;5007921;28;20451;-64
2023/08/30 07:28:58;;;;;;;16.17;14.53;;;17.10;29.10;;;;;;5007888;28;20460;-65
2023/08/30 07:31:24;;;;;;;15.27;13.40;;;17.00;29.20;;;;;;5004963;28;21031;-67
2023/08/30 07:33:51;;;;;;;15.27;13.67;;;17.00;29.30;;;;;;5007843;28;20476;-67
2023/08/30 07:36:18;;;;;;;13.87;12.40;;;17.00;29.40;;;;;;5005138;28;22256;-65
2023/08/30 07:38:45;;;;;;;15.73;13.87;;;17.00;29.40;;;;;;5001354;28;20991;-65
2023/08/30 07:41:11;;;;;;;14.53;13.00;;;17.00;29.30;;;;;;5008974;28;20474;-64
2023/08/30 07:43:39;;;;;;;16.50;14.33;;;17.10;29.20;;;;;;5007110;28;20583;-65
2023/08/30 07:46:06;;;;;;;15.50;13.40;;;17.00;28.80;;;;;;5008005;28;20476;-66
2023/08/30 07:48:33;;;;;;;14.80;13.30;;;17.10;28.70;;;;;;5003247;28;20550;-66
2023/08/30 07:50:59;;;;;;;16.40;14.00;;;17.10;28.80;;;;;;5001546;28;20498;-65
2023/08/30 07:53:26;;;;;;;15.17;13.40;;;17.10;28.80;;;;;;5004651;28;20844;-65
2023/08/30 07:55:53;;;;;;;17.53;13.53;;;17.10;28.50;;;;;;5007957;28;20520;-66
2023/08/30 07:58:19;;;;;;;18.50;13.57;;;17.10;28.60;;;;;;5005047;28;20467;-65
2023/08/30 08:00:51;;;;;;;16.13;13.57;;;17.10;29.00;;;;;;5008288;28;20555;-67
2023/08/30 08:03:18;;;;;;;15.77;13.83;;;17.20;29.20;;;;;;5005098;28;20492;-65
2023/08/30 08:05:45;;;;;;;16.57;13.30;;;17.20;29.10;;;;;;5000372;28;20829;-66
2023/08/30 08:08:11;;;;;;;13.73;11.70;;;17.30;28.90;;;;;;4999906;28;20476;-67
2023/08/30 08:10:38;;;;;;;17.00;13.60;;;17.40;28.50;;;;;;5006628;28;20464;-68
2023/08/30 08:13:05;;;;;;;17.30;13.70;;;17.40;28.50;;;;;;5003260;28;20851;-65
2023/08/30 08:15:32;;;;;;;14.60;12.93;;;17.50;28.50;;;;;;4998265;28;20965;-65
2023/08/30 08:18:00;;;;;;;14.93;13.00;;;17.60;28.10;;;;;;5003354;28;20459;-66
2023/08/30 08:20:27;;;;;;;14.53;12.50;;;17.70;27.60;;;;;;5001712;28;20486;-66
2023/08/30 08:22:54;;;;;;;14.10;12.63;;;17.80;27.50;;;;;;5006769;28;20480;-66
2023/08/30 08:25:21;;;;;;;14.83;11.67;;;17.90;27.40;;;;;;5009222;28;20484;-67
2023/08/30 08:27:48;;;;;;;14.70;11.57;;;18.10;27.10;;;;;;5004521;28;20467;-66
2023/08/30 08:30:15;;;;;;;14.73;12.37;;;18.30;26.10;;;;;;5007274;28;20463;-67
2023/08/30 08:32:42;;;;;;;17.40;12.53;;;18.50;25.40;;;;;;5004735;28;20455;-65
2023/08/30 08:35:10;;;;;;;13.90;11.60;;;18.70;24.90;;;;;;5011676;28;20514;-65
2023/08/30 08:37:37;;;;;;;14.30;11.77;;;18.80;24.50;;;;;;5010583;28;20864;-65
2023/08/30 08:40:08;;;;;;;14.50;11.00;;;18.80;23.90;;;;;;5006174;28;20467;-67
2023/08/30 08:42:36;;;;;;;13.17;10.73;;;18.80;22.90;;;;;;5008920;28;20466;-67
2023/08/30 08:45:04;;;;;;;11.90;10.23;;;18.80;22.90;;;;;;5003971;28;20519;-67
2023/08/30 08:47:31;;;;;;;15.00;11.43;;;18.90;22.10;;;;;;5003041;28;20475;-65
2023/08/30 08:49:59;;;;;;;11.50;10.13;;;18.90;23.10;;;;;;5007335;28;20498;-67
2023/08/30 08:52:27;;;;;;;12.17;10.33;;;19.10;21.70;;;;;;5006128;28;20486;-67
2023/08/30 08:54:56;;;;;;;12.47;10.70;;;19.10;20.80;;;;;;5011025;28;20488;-67
2023/08/30 08:57:23;;;;;;;12.47;10.37;;;19.10;21.00;;;;;;5003492;28;20470;-65
2023/08/30 08:59:50;;;;;;;13.20;10.17;;;19.20;21.50;;;;;;5007867;28;20495;-65
2023/08/30 09:02:17;;;;;;;12.73;9.70;;;19.40;21.50;;;;;;5008095;28;20531;-66
2023/08/30 09:04:44;;;;;;;11.60;9.87;;;19.50;20.70;;;;;;5006808;28;20484;-65
2023/08/30 09:07:11;;;;;;;14.00;10.27;;;19.60;20.20;;;;;;5011299;28;20486;-66
2023/08/30 09:09:39;;;;;;;12.83;10.40;;;19.70;19.90;;;;;;5008298;28;20474;-66
2023/08/30 09:12:06;;;;;;;11.40;9.60;;;19.90;19.80;;;;;;5010076;28;20467;-66
2023/08/30 09:14:33;;;;;;;11.10;9.10;;;20.10;19.60;;;;;;5008473;28;21022;-65
2023/08/30 09:17:02;;;;;;;10.10;9.10;;;20.40;18.60;;;;;;5007103;28;20456;-65
2023/08/30 09:19:30;;;;;;;11.17;8.87;;;20.70;17.90;;;;;;5010213;28;20464;-65
2023/08/30 09:21:59;;;;;;;10.50;9.00;;;21.00;17.50;;;;;;5009744;28;20456;-65
2023/08/30 09:24:26;;;;;;;11.20;8.90;;;21.20;15.20;;;;;;5007314;28;20507;-65
2023/08/30 09:26:56;;;;;;;12.30;9.03;;;21.30;15.30;;;;;;5009893;28;20471;-65
2023/08/30 09:29:23;;;;;;;11.57;9.10;;;21.40;14.90;;;;;;5010026;28;21105;-68
2023/08/30 09:31:53;;;;;;;11.10;8.03;;;21.60;14.30;;;;;;5006712;28;20890;-67
2023/08/30 09:34:24;;;;;;;11.23;8.07;;;21.60;14.20;;;;;;5009816;28;20511;-66
2023/08/30 09:36:50;;;;;;;9.50;7.80;;;21.90;13.90;;;;;;5005371;28;20510;-66
2023/08/30 09:39:17;;;;;;;9.97;8.90;;;22.10;13.60;;;;;;5008695;28;20479;-65
2023/08/30 09:41:45;;;;;;;9.80;8.33;;;22.50;11.10;;;;;;5004811;28;20475;-65
2023/08/30 09:44:14;;;;;;;9.33;8.40;;;22.60;11.10;;;;;;5013273;28;20503;-65
2023/08/30 09:46:43;;;;;;;10.40;8.70;;;22.70;10.80;;;;;;5008102;28;20467;-67
2023/08/30 09:49:10;;;;;;;9.70;7.93;;;23.10;11.20;;;;;;5007930;28;20467;-65
2023/08/30 09:51:41;;;;;;;8.90;7.40;;;23.50;10.80;;;;;;5009645;28;20474;-65
2023/08/30 09:54:14;;;;;;;13.97;8.40;;;23.80;8.70;;;;;;5008688;28;20471;-65
2023/08/30 09:56:42;;;;;;;8.60;6.80;;;24.10;8.60;;;;;;5009589;28;20945;-66
2023/08/30 09:59:10;;;;;;;8.97;7.60;;;24.20;8.10;;;;;;5006144;28;20842;-65
2023/08/30 10:01:39;;;;;;;9.70;7.00;;;24.20;7.70;;;;;;5005375;28;20484;-67
2023/08/30 10:04:08;;;;;;;10.10;7.70;;;24.40;7.80;;;;;;5006817;28;21141;-67
2023/08/30 10:06:36;;;;;;;11.00;7.50;;;24.40;7.00;;;;;;5009318;28;21393;-67
2023/08/30 10:09:04;;;;;;;8.47;7.20;;;24.30;7.50;;;;;;5009889;28;20462;-67
2023/08/30 10:11:33;;;;;;;10.87;7.77;;;24.20;7.40;;;;;;5003842;28;20525;-68
2023/08/30 10:14:01;;;;;;;7.87;7.00;;;24.00;7.50;;;;;;5011244;28;20468;-67
2023/08/30 10:16:36;;;;;;;12.20;6.70;;;24.00;7.70;;;;;;5006351;28;20456;-68
2023/08/30 10:19:10;;;;;;;8.10;7.07;;;24.40;7.60;;;;;;5008887;28;20834;-68
2023/08/30 10:21:37;;;;;;;8.60;7.07;;;25.00;5.50;;;;;;5001711;28;20471;-68
2023/08/30 10:24:06;;;;;;;8.27;7.37;;;25.40;3.60;;;;;;5009531;28;21003;-68
2023/08/30 10:26:34;;;;;;;8.00;6.10;;;25.60;2.90;;;;;;5008577;28;20459;-68
2023/08/30 10:29:03;;;;;;;8.87;5.80;;;25.90;2.80;;;;;;5007135;28;20632;-68
2023/08/30 10:31:30;;;;;;;7.70;6.60;;;26.10;2.10;;;;;;5003906;28;20498;-66
2023/08/30 10:33:56;;;;;;;7.90;6.37;;;26.10;2.10;;;;;;5009196;28;20494;-65
2023/08/30 10:36:25;;;;;;;8.87;6.80;;;26.00;2.00;;;;;;5004815;28;20522;-65
2023/08/30 10:38:53;;;;;;;8.27;6.10;;;25.80;2.10;;;;;;5006815;28;20460;-66
2023/08/30 10:41:23;;;;;;;7.80;6.53;;;25.70;2.50;;;;;;5003518;28;20475;-67
2023/08/30 10:43:52;;;;;;;9.37;6.53;;;25.70;2.60;;;;;;5007384;28;20986;-68
2023/08/30 10:46:29;;;;;;;7.17;6.17;;;25.70;2.40;;;;;;5000261;28;20542;-68
2023/08/30 10:48:57;;;;;;;7.00;6.30;;;26.00;2.40;;;;;;5005884;28;20476;-65
2023/08/30 10:51:38;;;;;;;6.87;5.93;;;26.40;1.00;;;;;;5003229;28;20855;-68
2023/08/30 10:54:11;;;;;;;5.93;4.20;;;26.70;1.00;;;;;;5008170;28;20499;-67
2023/08/30 10:56:47;;;;;;;4.90;3.17;;;26.90;1.00;;;;;;4997305;28;20490;-69
2023/08/30 10:59:18;;;;;;;7.23;4.07;;;27.30;1.00;;;;;;4998056;28;20495;-69
2023/08/30 11:01:46;;;;;;;4.73;3.33;;;27.80;1.00;;;;;;5004839;28;20480;-69
2023/08/30 11:04:14;;;;;;;5.97;4.77;;;27.60;1.00;;;;;;5008286;28;20491;-69
2023/08/30 11:06:44;;;;;;;5.97;4.20;;;27.40;1.00;;;;;;4998312;28;20464;-69
2023/08/30 11:09:13;;;;;;;6.63;4.20;;;27.10;1.00;;;;;;5004601;28;20500;-69
2023/08/30 11:11:39;;;;;;;6.00;3.87;;;26.80;1.00;;;;;;5000055;28;20520;-69
2023/08/30 11:14:07;;;;;;;6.03;3.80;;;26.60;1.00;;;;;;4999870;28;20492;-69
2023/08/30 11:16:34;;;;;;;5.90;3.97;;;26.60;1.00;;;;;;4997432;28;20463;-69
2023/08/30 11:19:02;;;;;;;5.90;3.83;;;26.60;1.00;;;;;;5000285;28;20852;-69
2023/08/30 11:21:28;;;;;;;5.57;3.80;;;26.70;1.00;;;;;;4997352;28;20471;-69
2023/08/30 11:23:56;;;;;;;7.27;4.37;;;26.60;1.00;;;;;;4998878;28;20484;-69
2023/08/30 11:26:23;;;;;;;6.53;4.33;;;26.40;1.00;;;;;;5000646;28;20501;-69
2023/08/30 11:28:52;;;;;;;6.53;4.13;;;26.20;1.00;;;;;;5002615;28;20470;-69
2023/08/30 11:31:20;;;;;;;5.80;4.10;;;26.00;1.00;;;;;;5006182;28;20472;-69
2023/08/30 11:33:55;;;;;;;8.80;4.30;;;25.80;1.20;;;;;;4998198;28;20964;-69
2023/08/30 11:36:22;;;;;;;7.30;4.63;;;25.80;1.40;;;;;;5002774;28;20459;-69
2023/08/30 11:38:50;;;;;;;5.70;3.73;;;25.70;1.10;;;;;;5003571;28;20471;-69
2023/08/30 11:41:20;;;;;;;5.80;3.70;;;25.60;1.00;;;;;;5004685;28;20571;-65
2023/08/30 11:43:48;;;;;;;5.63;3.83;;;25.40;2.00;;;;;;4998584;28;20495;-68
2023/08/30 11:46:15;;;;;;;4.30;2.60;;;25.30;2.50;;;;;;5001598;28;20887;-67
2023/08/30 11:48:42;;;;;;;4.33;2.67;;;25.30;2.10;;;;;;5004242;28;20463;-67
2023/08/30 11:51:10;;;;;;;4.73;3.07;;;25.20;2.00;;;;;;5005734;28;20471;-67
2023/08/30 11:53:38;;;;;;;5.77;4.00;;;25.00;1.90;;;;;;4998962;28;20488;-68
2023/08/30 11:56:06;;;;;;;4.70;3.40;;;24.80;2.00;;;;;;5010205;28;20563;-67
2023/08/30 11:58:35;;;;;;;6.57;3.80;;;24.70;1.80;;;;;;5012677;28;20574;-67
2023/08/30 12:01:03;;;;;;;7.40;3.37;;;24.60;2.70;;;;;;5001656;28;20491;-67
2023/08/30 12:03:30;;;;;;;6.50;3.33;;;24.50;2.40;;;;;;5011040;28;20494;-68
2023/08/30 12:05:58;;;;;;;6.50;2.80;;;24.50;2.40;;;;;;5006956;28;20479;-69
2023/08/30 12:08:26;;;;;;;5.53;2.80;;;24.40;2.70;;;;;;5008166;28;20457;-70
2023/08/30 12:10:53;;;;;;;5.50;2.90;;;24.40;3.20;;;;;;5009802;28;20470;-70
2023/08/30 12:13:24;;;;;;;4.27;2.60;;;24.50;4.10;;;;;;5005802;28;20484;-69
2023/08/30 12:15:53;;;;;;;4.63;2.90;;;24.50;4.60;;;;;;5012004;28;20464;-69
2023/08/30 12:18:23;;;;;;;5.40;2.50;;;24.50;3.80;;;;;;5006120;28;21006;-67
2023/08/30 12:20:54;;;;;;;4.97;3.03;;;24.50;4.10;;;;;;5002625;28;20510;-67
2023/08/30 12:23:21;;;;;;;4.97;2.50;;;24.50;3.30;;;;;;5005421;28;20512;-67
2023/08/30 12:25:58;;;;;;;4.70;2.83;;;24.40;3.30;;;;;;5002329;28;20483;-67
2023/08/30 12:28:25;;;;;;;5.70;3.23;;;24.40;3.90;;;;;;5010545;28;21148;-67
2023/08/30 12:30:54;;;;;;;5.23;2.97;;;24.30;4.10;;;;;;5009517;28;20478;-67
2023/08/30 12:33:21;;;;;;;7.57;3.30;;;24.20;3.10;;;;;;5005217;28;20487;-68
2023/08/30 12:35:48;;;;;;;4.70;2.83;;;24.10;3.30;;;;;;5003137;28;20452;-68